Time;durP1;ratioP1;P1;durP2;ratioP2;P2;SDS_P1;SDS_P2;PMS_P1;PMS_P2;Temp;Humidity;BMP_temperature;BMP_pressure;BME280_temperature;BME280_humidity;BME280_pressure;Samples;Min_cycle;Max_cycle;Signal;HPM_P1;HPM_P2
2022/12/25 00:02:14;;;;;;;4.13;1.90;;;9.00;83.50;;;;;;5011718;28;20103;-76
2022/12/25 00:04:41;;;;;;;5.88;3.00;;;9.00;82.70;;;;;;5011177;28;20061;-76
2022/12/25 00:07:06;;;;;;;7.53;4.28;;;9.10;82.70;;;;;;5011638;28;20168;-75
2022/12/25 00:09:32;;;;;;;2.15;1.25;;;9.10;82.60;;;;;;5011915;28;20113;-75
2022/12/25 00:11:57;;;;;;;2.05;0.82;;;9.20;82.50;;;;;;5011472;28;20041;-75
2022/12/25 00:14:23;;;;;;;12.43;5.32;;;9.10;82.10;;;;;;5012058;28;20421;-74
2022/12/25 00:16:49;;;;;;;32.03;14.90;;;9.20;82.00;;;;;;4995455;28;20104;-74
2022/12/25 00:19:15;;;;;;;3.65;2.35;;;9.20;81.80;;;;;;5011462;28;20426;-75
2022/12/25 00:21:41;;;;;;;5.50;2.28;;;9.10;82.00;;;;;;5011572;28;20474;-75
2022/12/25 00:24:08;;;;;;;5.75;2.90;;;9.20;82.10;;;;;;5011836;28;20037;-75
2022/12/25 00:26:33;;;;;;;6.75;3.20;;;9.10;82.20;;;;;;5011307;28;20049;-74
2022/12/25 00:29:00;;;;;;;3.60;2.00;;;9.20;82.10;;;;;;5011774;28;20117;-74
2022/12/25 00:31:26;;;;;;;4.30;1.25;;;9.20;82.00;;;;;;5011521;28;20116;-75
2022/12/25 00:33:52;;;;;;;5.55;2.55;;;9.20;82.00;;;;;;5011663;28;20437;-75
2022/12/25 00:36:20;;;;;;;2.58;1.58;;;9.20;82.10;;;;;;5011802;28;20021;-74
2022/12/25 00:38:47;;;;;;;3.60;1.95;;;9.30;82.10;;;;;;5011641;28;20116;-74
2022/12/25 00:41:15;;;;;;;1.00;0.70;;;9.30;82.00;;;;;;5011462;28;20046;-73
2022/12/25 00:43:41;;;;;;;1.25;0.73;;;9.40;81.90;;;;;;4995119;28;20030;-74
2022/12/25 00:46:08;;;;;;;1.60;0.80;;;9.40;81.80;;;;;;5014382;28;20125;-74
2022/12/25 00:48:36;;;;;;;2.70;0.82;;;9.40;81.70;;;;;;5015549;28;20027;-73
2022/12/25 00:51:05;;;;;;;1.60;0.98;;;9.40;81.60;;;;;;5015063;28;20029;-74
2022/12/25 00:53:31;;;;;;;2.10;1.00;;;9.40;81.50;;;;;;5014996;28;20113;-74
2022/12/25 00:55:59;;;;;;;4.30;1.90;;;9.50;81.50;;;;;;5014453;28;20387;-74
2022/12/25 00:58:27;;;;;;;1.60;1.00;;;9.50;82.30;;;;;;5015306;28;20025;-74
2022/12/25 01:00:53;;;;;;;6.57;1.95;;;9.50;81.50;;;;;;5014889;28;20076;-73
2022/12/25 01:03:18;;;;;;;2.45;1.27;;;9.60;81.40;;;;;;5014671;28;20022;-78
2022/12/25 01:05:58;;;;;;;2.63;1.45;;;9.50;81.50;;;;;;5014633;28;20522;-73
2022/12/25 01:08:24;;;;;;;1.05;0.75;;;9.50;81.50;;;;;;5014636;28;20033;-73
2022/12/25 01:10:58;;;;;;;3.05;0.77;;;9.60;81.20;;;;;;5014642;28;20236;-73
2022/12/25 01:13:23;;;;;;;2.75;1.10;;;9.60;81.40;;;;;;5014453;28;20030;-74
2022/12/25 01:15:51;;;;;;;1.33;0.93;;;9.60;81.30;;;;;;5014289;28;20030;-75
2022/12/25 01:18:17;;;;;;;4.13;1.50;;;9.60;81.20;;;;;;5014363;28;20018;-74
2022/12/25 01:20:43;;;;;;;5.32;2.33;;;9.60;81.20;;;;;;5014753;28;20080;-74
2022/12/25 01:23:10;;;;;;;4.82;2.00;;;9.60;81.20;;;;;;5014656;28;20030;-75
2022/12/25 01:25:36;;;;;;;2.97;1.30;;;9.50;81.50;;;;;;5014646;28;20083;-74
2022/12/25 01:28:02;;;;;;;2.22;0.95;;;9.50;82.00;;;;;;5015173;28;20038;-75
2022/12/25 01:30:27;;;;;;;7.72;2.88;;;9.50;82.20;;;;;;5014181;28;20079;-75
2022/12/25 01:32:53;;;;;;;2.53;1.10;;;9.50;82.10;;;;;;5014316;28;20032;-74
2022/12/25 01:35:18;;;;;;;1.38;0.93;;;9.60;82.10;;;;;;5013927;28;20083;-75
2022/12/25 01:37:44;;;;;;;4.13;0.50;;;9.60;81.80;;;;;;5014154;28;20030;-75
2022/12/25 01:40:11;;;;;;;0.57;0.32;;;9.60;82.10;;;;;;5013605;28;20041;-74
2022/12/25 01:42:37;;;;;;;0.77;0.25;;;9.60;82.30;;;;;;5014211;28;20029;-76
2022/12/25 01:45:32;;;;;;;0.40;0.40;;;9.70;82.20;;;;;;5013896;28;20391;-76
2022/12/25 01:47:59;;;;;;;0.32;0.30;;;9.70;81.90;;;;;;5014153;28;20087;-75
2022/12/25 01:50:25;;;;;;;1.83;0.70;;;9.80;81.20;;;;;;5014068;28;20516;-76
2022/12/25 01:52:52;;;;;;;0.30;0.30;;;9.80;81.30;;;;;;5017502;28;20520;-76
2022/12/25 01:55:18;;;;;;;1.55;0.50;;;9.80;81.50;;;;;;5015470;28;20037;-76
2022/12/25 01:57:44;;;;;;;0.57;0.57;;;9.80;81.70;;;;;;5031012;28;20026;-75
2022/12/25 02:00:12;;;;;;;1.08;0.30;;;9.70;81.90;;;;;;5022548;28;20029;-74
2022/12/25 02:02:39;;;;;;;0.40;0.25;;;9.70;82.30;;;;;;5020610;28;20034;-74
2022/12/25 02:05:18;;;;;;;0.35;0.35;;;9.70;82.10;;;;;;5020008;28;20061;-74
2022/12/25 02:07:45;;;;;;;0.50;0.30;;;9.80;82.00;;;;;;5016119;28;20038;-75
2022/12/25 02:10:12;;;;;;;0.30;0.30;;;9.80;81.90;;;;;;5013308;28;20022;-75
2022/12/25 02:12:39;;;;;;;0.77;0.40;;;9.90;82.00;;;;;;4996626;28;20038;-76
2022/12/25 02:15:10;;;;;;;0.20;0.17;;;9.90;82.00;;;;;;5013102;28;20026;-78
2022/12/25 02:18:05;;;;;;;0.40;0.22;;;9.90;81.70;;;;;;5012943;28;20064;-76
2022/12/25 02:20:58;;;;;;;0.40;0.32;;;9.90;81.60;;;;;;5012899;28;20030;-76
2022/12/25 02:23:39;;;;;;;0.82;0.50;;;10.00;81.40;;;;;;5013350;28;20116;-75
2022/12/25 02:26:15;;;;;;;0.95;0.50;;;10.00;81.70;;;;;;5012904;28;20022;-75
2022/12/25 02:28:53;;;;;;;0.57;0.50;;;9.90;81.80;;;;;;5012842;28;20391;-76
2022/12/25 02:31:34;;;;;;;0.47;0.20;;;9.90;81.80;;;;;;5013976;28;20497;-76
2022/12/25 02:34:03;;;;;;;1.02;0.50;;;9.90;82.00;;;;;;5013205;28;20478;-75
2022/12/25 02:36:39;;;;;;;0.35;0.35;;;9.90;82.20;;;;;;5012749;28;20050;-76
2022/12/25 02:42:02;;;;;;;1.02;0.43;;;9.90;82.30;;;;;;5014368;28;20040;-75
2022/12/25 03:07:15;;;;;;;1.42;0.63;;;9.70;83.40;;;;;;5013873;28;20080;-75
2022/12/25 03:12:55;;;;;;;1.10;0.47;;;9.60;83.80;;;;;;5015483;28;20096;-75
2022/12/25 03:18:10;;;;;;;0.50;0.30;;;9.60;83.80;;;;;;5014476;28;20056;-78
2022/12/25 03:28:56;;;;;;;1.73;0.40;;;9.60;83.80;;;;;;5014884;28;20489;-76
2022/12/25 03:31:48;;;;;;;1.17;0.55;;;9.60;83.80;;;;;;5013187;28;20382;-90
2022/12/25 04:37:08;;;;;;;2.13;0.80;;;9.70;84.90;;;;;;5016534;28;20036;-75
2022/12/25 04:39:34;;;;;;;1.45;0.55;;;9.70;84.80;;;;;;5015335;28;20022;-82
2022/12/25 04:41:59;;;;;;;1.02;0.90;;;9.80;84.80;;;;;;5015481;28;20042;-75
2022/12/25 04:44:26;;;;;;;0.82;0.82;;;9.80;84.70;;;;;;5015823;28;20037;-75
2022/12/25 04:46:51;;;;;;;1.25;0.90;;;9.80;84.60;;;;;;5015097;28;20037;-75
2022/12/25 04:49:17;;;;;;;2.20;0.95;;;9.80;84.60;;;;;;5015056;28;20493;-78
2022/12/25 04:51:43;;;;;;;2.85;1.15;;;9.80;84.40;;;;;;5015874;28;20022;-75
2022/12/25 04:54:10;;;;;;;2.40;0.82;;;9.90;84.60;;;;;;5014473;28;20088;-78
2022/12/25 04:56:35;;;;;;;2.13;0.90;;;9.90;84.60;;;;;;5015711;28;20441;-75
2022/12/25 04:59:01;;;;;;;3.65;2.38;;;9.90;84.60;;;;;;5014976;28;20029;-75
2022/12/25 05:01:28;;;;;;;2.97;2.00;;;9.90;84.50;;;;;;5014632;28;20080;-86
2022/12/25 05:03:53;;;;;;;1.73;1.15;;;9.90;84.50;;;;;;5015882;28;20080;-76
2022/12/25 05:06:19;;;;;;;1.05;0.80;;;10.00;85.00;;;;;;5014434;28;20392;-83
2022/12/25 05:08:45;;;;;;;2.00;0.60;;;10.00;84.50;;;;;;5014973;28;20030;-75
2022/12/25 05:11:13;;;;;;;0.85;0.77;;;10.10;84.40;;;;;;5014628;28;20112;-75
2022/12/25 05:13:39;;;;;;;1.10;0.70;;;10.10;84.20;;;;;;5014439;28;20033;-75
2022/12/25 05:16:15;;;;;;;2.22;0.80;;;10.10;84.30;;;;;;5014655;28;20030;-75
2022/12/25 05:18:42;;;;;;;1.80;0.50;;;10.10;84.30;;;;;;5015695;28;20026;-85
2022/12/25 05:21:10;;;;;;;2.40;1.50;;;10.10;84.40;;;;;;5017614;28;20052;-75
2022/12/25 05:23:36;;;;;;;2.45;1.45;;;10.10;84.30;;;;;;5014473;28;20080;-75
2022/12/25 05:26:06;;;;;;;3.38;1.55;;;10.10;84.20;;;;;;5032060;28;20041;-73
2022/12/25 05:28:34;;;;;;;3.70;2.50;;;10.20;84.00;;;;;;5027207;28;20049;-75
2022/12/25 05:30:59;;;;;;;5.70;3.28;;;10.20;83.80;;;;;;5020038;28;20400;-73
2022/12/25 05:33:25;;;;;;;2.13;1.58;;;10.20;83.80;;;;;;5025586;28;20051;-74
2022/12/25 05:35:51;;;;;;;3.13;1.85;;;10.20;83.90;;;;;;5021264;28;20030;-75
2022/12/25 05:38:16;;;;;;;3.53;1.95;;;10.20;83.90;;;;;;5014019;28;20026;-74
2022/12/25 05:40:42;;;;;;;1.70;1.25;;;10.20;83.90;;;;;;5013884;28;20049;-74
2022/12/25 05:43:08;;;;;;;2.50;1.35;;;10.20;83.90;;;;;;5013639;28;20489;-73
2022/12/25 05:45:34;;;;;;;2.45;1.67;;;10.20;83.60;;;;;;5013631;28;20018;-75
2022/12/25 05:48:00;;;;;;;2.35;1.17;;;10.20;83.40;;;;;;5013056;28;20038;-74
2022/12/25 05:50:25;;;;;;;1.60;1.33;;;10.20;83.40;;;;;;5013993;28;20018;-74
2022/12/25 05:52:51;;;;;;;2.28;1.52;;;10.30;83.70;;;;;;4997356;28;20179;-75
2022/12/25 05:55:17;;;;;;;2.30;1.70;;;10.20;83.50;;;;;;5013382;28;20110;-75
2022/12/25 05:57:42;;;;;;;1.60;1.50;;;10.20;83.60;;;;;;5013567;28;20049;-75
2022/12/25 06:00:08;;;;;;;3.33;1.77;;;10.30;83.70;;;;;;5013711;28;20030;-75
2022/12/25 06:02:35;;;;;;;3.33;1.65;;;10.30;83.60;;;;;;5014730;28;20495;-75
2022/12/25 06:05:01;;;;;;;3.38;2.17;;;10.30;83.70;;;;;;5012943;28;20161;-75
2022/12/25 06:07:26;;;;;;;3.17;2.33;;;10.30;83.90;;;;;;5013169;28;20092;-74
2022/12/25 06:09:53;;;;;;;3.00;2.35;;;10.30;83.90;;;;;;5013535;28;20072;-74
2022/12/25 06:12:19;;;;;;;2.97;2.53;;;10.30;84.10;;;;;;5013606;28;20026;-77
2022/12/25 06:14:44;;;;;;;4.90;1.80;;;10.30;84.20;;;;;;5013607;28;20071;-74
2022/12/25 06:17:10;;;;;;;2.78;2.10;;;10.30;84.10;;;;;;5013156;28;20029;-74
2022/12/25 06:19:36;;;;;;;4.13;2.33;;;10.40;84.00;;;;;;5013268;28;20095;-74
2022/12/25 06:22:01;;;;;;;2.53;1.95;;;10.40;84.00;;;;;;5013301;28;20117;-74
2022/12/25 06:24:27;;;;;;;3.50;2.22;;;10.40;83.90;;;;;;5012827;28;20073;-74
2022/12/25 06:26:53;;;;;;;2.17;1.98;;;10.40;83.80;;;;;;5013126;28;20486;-74
2022/12/25 06:29:18;;;;;;;3.35;2.28;;;10.40;83.90;;;;;;4996395;28;20026;-75
2022/12/25 06:31:44;;;;;;;3.70;1.67;;;10.40;83.80;;;;;;5013303;28;20037;-73
2022/12/25 06:34:10;;;;;;;2.50;1.80;;;10.50;83.90;;;;;;5012771;28;20092;-73
2022/12/25 06:36:37;;;;;;;2.85;1.83;;;10.50;84.00;;;;;;5012846;28;20021;-73
2022/12/25 06:39:03;;;;;;;2.50;2.13;;;10.50;84.10;;;;;;4996548;28;20026;-73
2022/12/25 06:41:29;;;;;;;3.03;2.42;;;10.40;83.90;;;;;;5012541;28;20050;-73
2022/12/25 06:43:58;;;;;;;3.97;2.40;;;10.40;83.80;;;;;;5012998;28;20026;-73
2022/12/25 06:46:27;;;;;;;3.03;2.30;;;10.50;84.70;;;;;;5013788;28;20038;-73
2022/12/25 06:48:52;;;;;;;6.45;2.17;;;10.50;83.80;;;;;;5012946;28;20026;-75
2022/12/25 06:51:27;;;;;;;4.57;2.60;;;10.50;83.80;;;;;;5012639;28;20084;-75
2022/12/25 06:53:54;;;;;;;4.00;2.60;;;10.50;84.60;;;;;;5012842;28;20029;-75
2022/12/25 06:56:24;;;;;;;2.60;2.40;;;10.50;83.80;;;;;;5012561;28;20467;-75
2022/12/25 06:58:58;;;;;;;3.55;2.35;;;10.50;83.80;;;;;;4996266;28;20368;-75
2022/12/25 07:01:27;;;;;;;3.30;2.33;;;10.50;83.80;;;;;;5012331;28;20026;-75
2022/12/25 07:04:00;;;;;;;2.33;2.10;;;10.60;83.70;;;;;;5012815;28;20116;-74
2022/12/25 07:06:25;;;;;;;4.65;2.53;;;10.50;83.70;;;;;;5012185;28;20022;-74
2022/12/25 07:08:51;;;;;;;5.30;2.85;;;10.50;83.70;;;;;;5011851;28;20026;-75
2022/12/25 07:11:17;;;;;;;3.60;2.35;;;10.50;83.70;;;;;;5012341;28;20021;-74
2022/12/25 07:13:44;;;;;;;3.58;2.53;;;10.50;83.80;;;;;;5012362;28;20057;-74
2022/12/25 07:16:11;;;;;;;3.13;2.50;;;10.50;84.00;;;;;;5011797;28;20033;-73
2022/12/25 07:18:36;;;;;;;3.67;2.55;;;10.50;83.90;;;;;;5013206;28;20103;-89
2022/12/25 07:21:15;;;;;;;3.90;2.28;;;10.50;83.90;;;;;;5012353;28;20023;-72
2022/12/25 07:23:41;;;;;;;3.50;2.60;;;10.50;84.00;;;;;;5012337;28;20080;-73
2022/12/25 07:26:10;;;;;;;2.63;1.80;;;10.50;83.90;;;;;;5014194;28;20064;-75
2022/12/25 07:28:37;;;;;;;4.07;2.58;;;10.50;83.90;;;;;;5013569;28;20025;-76
2022/12/25 07:31:09;;;;;;;3.15;2.42;;;10.50;83.80;;;;;;5013659;28;20164;-76
2022/12/25 07:33:36;;;;;;;7.60;4.10;;;10.60;83.80;;;;;;5013304;28;20466;-75
2022/12/25 07:36:02;;;;;;;4.32;3.10;;;10.60;83.70;;;;;;5012288;28;20478;-74
2022/12/25 07:38:28;;;;;;;5.90;2.90;;;10.60;83.60;;;;;;5012119;28;20057;-74
2022/12/25 07:40:53;;;;;;;4.50;2.80;;;10.60;83.60;;;;;;5012083;28;20049;-74
2022/12/25 07:43:19;;;;;;;4.05;2.60;;;10.60;83.50;;;;;;5011816;28;20514;-74
2022/12/25 07:45:45;;;;;;;6.55;3.00;;;10.60;83.50;;;;;;5012452;28;20084;-76
2022/12/25 07:48:11;;;;;;;4.10;2.70;;;10.60;83.50;;;;;;5012050;28;20070;-74
2022/12/25 07:50:36;;;;;;;5.25;3.38;;;10.60;83.40;;;;;;5012059;28;20026;-82
2022/12/25 07:53:02;;;;;;;7.72;4.53;;;10.60;84.20;;;;;;5013034;28;20505;-73
2022/12/25 07:55:28;;;;;;;5.53;3.03;;;10.70;83.20;;;;;;5013633;28;20018;-73
2022/12/25 07:57:53;;;;;;;4.28;2.83;;;10.60;82.90;;;;;;5015024;28;20022;-73
2022/12/25 08:00:19;;;;;;;5.82;2.85;;;10.70;82.80;;;;;;5015741;28;20033;-73
2022/12/25 08:02:48;;;;;;;7.40;2.85;;;10.70;82.60;;;;;;5015804;28;20032;-73
2022/12/25 08:05:14;;;;;;;3.78;2.38;;;10.70;82.50;;;;;;5015689;28;20507;-73
2022/12/25 08:07:39;;;;;;;4.13;2.33;;;10.70;82.50;;;;;;5015779;28;20033;-73
2022/12/25 08:10:05;;;;;;;3.97;2.47;;;10.70;82.30;;;;;;5015209;28;20032;-73
2022/12/25 08:12:31;;;;;;;5.05;2.40;;;10.80;82.00;;;;;;5015857;28;20084;-80
2022/12/25 08:14:56;;;;;;;2.70;2.45;;;10.90;81.70;;;;;;5020853;28;20030;-74
2022/12/25 08:17:22;;;;;;;3.38;2.60;;;10.90;81.70;;;;;;5015249;28;20018;-74
2022/12/25 08:19:48;;;;;;;4.50;2.05;;;11.00;81.40;;;;;;5015504;28;20036;-74
2022/12/25 08:22:13;;;;;;;2.42;2.08;;;11.00;81.20;;;;;;5015681;28;20463;-74
2022/12/25 08:24:39;;;;;;;3.97;1.77;;;11.10;81.10;;;;;;5017668;28;20026;-76
2022/12/25 08:27:04;;;;;;;3.28;2.10;;;11.20;80.80;;;;;;5022798;28;20038;-74
2022/12/25 08:29:30;;;;;;;2.58;1.63;;;11.30;80.30;;;;;;5020241;28;20022;-74
2022/12/25 08:31:56;;;;;;;3.72;1.98;;;11.40;79.60;;;;;;5020433;28;20470;-74
2022/12/25 08:34:21;;;;;;;3.65;2.17;;;11.40;79.20;;;;;;5016013;28;20493;-74
2022/12/25 08:36:47;;;;;;;2.10;1.48;;;11.50;78.90;;;;;;5015180;28;20121;-75
2022/12/25 08:39:13;;;;;;;21.92;3.47;;;11.60;78.90;;;;;;5017724;28;20113;-83
2022/12/25 08:41:39;;;;;;;9.50;2.40;;;11.80;79.40;;;;;;5020029;28;20053;-84
2022/12/25 08:44:05;;;;;;;4.72;1.98;;;12.10;78.30;;;;;;4983306;28;20022;-84
2022/12/25 08:46:31;;;;;;;7.20;2.33;;;12.30;77.00;;;;;;5016021;28;20069;-84
2022/12/25 08:48:57;;;;;;;4.22;1.90;;;12.40;77.00;;;;;;5015098;28;20111;-84
2022/12/25 08:51:24;;;;;;;5.07;1.55;;;12.70;76.60;;;;;;5015313;28;20026;-84
2022/12/25 08:53:53;;;;;;;3.88;1.50;;;13.00;75.80;;;;;;4998391;28;20034;-83
2022/12/25 08:56:19;;;;;;;2.30;1.25;;;13.40;73.50;;;;;;5016281;28;20105;-84
2022/12/25 08:58:47;;;;;;;2.38;1.40;;;13.70;72.20;;;;;;5016020;28;20361;-82
2022/12/25 09:01:13;;;;;;;2.78;1.30;;;14.10;69.90;;;;;;5014713;28;20045;-83
2022/12/25 09:03:42;;;;;;;2.53;1.40;;;14.20;68.80;;;;;;5015157;28;20033;-82
2022/12/25 09:06:15;;;;;;;2.55;1.08;;;14.40;67.30;;;;;;5014886;28;20038;-77
2022/12/25 09:08:41;;;;;;;2.22;1.38;;;14.40;67.00;;;;;;5014762;28;20030;-77
2022/12/25 09:11:10;;;;;;;3.05;1.33;;;14.40;66.40;;;;;;5014742;28;20371;-75
2022/12/25 09:13:36;;;;;;;1.73;1.45;;;14.70;65.60;;;;;;5015859;28;20021;-75
2022/12/25 09:16:06;;;;;;;2.20;1.00;;;15.00;64.30;;;;;;5014449;28;20463;-77
2022/12/25 09:18:32;;;;;;;2.28;1.05;;;15.40;62.60;;;;;;5013738;28;20084;-74
2022/12/25 09:21:03;;;;;;;1.10;0.90;;;15.60;61.50;;;;;;5014112;28;20030;-78
2022/12/25 09:23:32;;;;;;;1.67;1.30;;;15.90;60.40;;;;;;4998405;28;20053;-75
2022/12/25 09:26:01;;;;;;;1.40;1.08;;;16.00;59.50;;;;;;5014440;28;20062;-74
2022/12/25 09:28:26;;;;;;;2.60;1.27;;;16.10;59.40;;;;;;5014809;28;20022;-77
2022/12/25 09:30:52;;;;;;;2.90;1.17;;;16.30;57.30;;;;;;4997782;28;20042;-77
2022/12/25 09:33:19;;;;;;;2.15;1.00;;;16.60;56.60;;;;;;5014570;28;20025;-79
2022/12/25 09:35:59;;;;;;;2.58;1.55;;;16.80;54.80;;;;;;5015229;28;20030;-77
2022/12/25 09:38:25;;;;;;;2.42;1.10;;;16.90;54.60;;;;;;5014225;28;20471;-77
2022/12/25 09:41:01;;;;;;;2.20;1.05;;;17.00;54.10;;;;;;5013922;28;20053;-74
2022/12/25 09:43:29;;;;;;;1.20;0.75;;;16.90;53.50;;;;;;5015241;28;20029;-76
2022/12/25 09:45:57;;;;;;;0.70;0.55;;;16.80;54.10;;;;;;5013855;28;20033;-73
2022/12/25 09:48:24;;;;;;;2.33;1.02;;;16.90;54.80;;;;;;5013804;28;20490;-76
2022/12/25 09:51:13;;;;;;;1.02;0.90;;;16.80;54.40;;;;;;5013748;28;20136;-76
2022/12/25 09:53:44;;;;;;;0.88;0.63;;;17.00;54.60;;;;;;5013770;28;20410;-76
2022/12/25 09:56:25;;;;;;;2.50;1.02;;;17.30;54.10;;;;;;5013971;28;20084;-76
2022/12/25 09:58:52;;;;;;;0.57;0.55;;;17.60;53.90;;;;;;5013690;28;20042;-76
2022/12/25 10:01:39;;;;;;;0.60;0.57;;;18.00;52.80;;;;;;5013706;28;20080;-77
2022/12/25 10:04:20;;;;;;;0.93;0.65;;;18.20;51.50;;;;;;5013703;28;20017;-77
2022/12/25 10:07:30;;;;;;;0.73;0.70;;;18.50;50.00;;;;;;5013612;28;20037;-76
2022/12/25 10:10:21;;;;;;;3.00;1.35;;;18.70;49.30;;;;;;5013556;28;20065;-76
2022/12/25 10:13:05;;;;;;;1.17;1.08;;;18.90;48.50;;;;;;5013408;28;20022;-82
2022/12/25 10:15:52;;;;;;;1.13;0.90;;;18.90;47.90;;;;;;5013663;28;20490;-76
2022/12/25 10:18:23;;;;;;;1.45;0.80;;;19.00;48.30;;;;;;4982508;28;20097;-77
2022/12/25 10:20:52;;;;;;;0.90;0.50;;;19.20;47.90;;;;;;5013488;28;20105;-77
2022/12/25 10:23:35;;;;;;;1.65;0.88;;;19.30;47.10;;;;;;5013006;28;20033;-76
2022/12/25 10:26:01;;;;;;;0.60;0.60;;;19.40;47.10;;;;;;4997375;28;20092;-75
2022/12/25 10:28:46;;;;;;;1.38;0.60;;;19.50;46.80;;;;;;5013425;28;20026;-75
2022/12/25 10:31:27;;;;;;;0.93;0.77;;;19.60;46.50;;;;;;5013726;28;20029;-81
2022/12/25 10:33:53;;;;;;;0.40;0.40;;;19.70;46.30;;;;;;5013425;28;20029;-74
2022/12/25 10:36:25;;;;;;;1.00;0.70;;;19.60;45.30;;;;;;5013034;28;20470;-74
2022/12/25 10:38:51;;;;;;;1.48;1.00;;;19.50;44.70;;;;;;5015015;28;20037;-76
2022/12/25 10:41:54;;;;;;;1.08;0.52;;;19.50;45.00;;;;;;5014025;28;20046;-77
2022/12/25 10:44:25;;;;;;;1.15;0.60;;;19.30;45.90;;;;;;5015525;28;20029;-75
2022/12/25 10:46:55;;;;;;;2.08;0.50;;;19.10;45.80;;;;;;5013291;28;20392;-74
2022/12/25 10:49:23;;;;;;;0.77;0.50;;;19.10;45.80;;;;;;5013092;28;20198;-78
2022/12/25 10:51:49;;;;;;;0.50;0.50;;;19.40;46.20;;;;;;5013030;28;20108;-73
2022/12/25 10:54:23;;;;;;;0.60;0.50;;;19.80;45.10;;;;;;5012420;28;20034;-73
2022/12/25 10:56:57;;;;;;;0.57;0.57;;;20.10;44.30;;;;;;5012762;28;20116;-73
2022/12/25 10:59:46;;;;;;;0.40;0.40;;;20.50;43.90;;;;;;5012814;28;20030;-73
2022/12/25 11:02:34;;;;;;;1.08;0.65;;;21.10;43.50;;;;;;5013191;28;20193;-73
2022/12/25 11:05:02;;;;;;;0.73;0.50;;;21.10;41.80;;;;;;5012647;28;20044;-72
2022/12/25 11:07:27;;;;;;;0.77;0.52;;;20.40;43.70;;;;;;5012415;28;20109;-72
2022/12/25 11:09:55;;;;;;;2.80;0.70;;;20.00;44.90;;;;;;5012769;28;20508;-73
2022/12/25 11:12:40;;;;;;;0.85;0.52;;;19.70;46.20;;;;;;5012514;28;20529;-73
2022/12/25 11:15:29;;;;;;;1.50;0.73;;;19.30;47.30;;;;;;5012587;28;20022;-73
2022/12/25 11:17:54;;;;;;;1.33;0.60;;;19.30;47.60;;;;;;5012373;28;20058;-73
2022/12/25 11:20:21;;;;;;;1.50;0.63;;;19.90;46.60;;;;;;4996858;28;20441;-73
2022/12/25 11:22:48;;;;;;;0.98;0.80;;;20.30;45.70;;;;;;5013401;28;20026;-72
2022/12/25 11:25:21;;;;;;;0.82;0.70;;;20.50;44.90;;;;;;5012384;28;20032;-74
2022/12/25 11:27:57;;;;;;;1.00;0.70;;;21.10;43.50;;;;;;5011857;28;20109;-89
2022/12/25 11:30:22;;;;;;;1.63;0.95;;;21.70;41.60;;;;;;5012330;28;20109;-73
2022/12/25 11:32:54;;;;;;;1.88;0.60;;;22.50;39.50;;;;;;5012477;28;20486;-74
2022/12/25 11:35:23;;;;;;;1.17;0.57;;;23.50;38.10;;;;;;5013318;28;20026;-74
2022/12/25 11:37:51;;;;;;;0.93;0.60;;;24.80;35.50;;;;;;5012502;28;20109;-73
2022/12/25 11:40:24;;;;;;;1.15;0.60;;;26.30;32.70;;;;;;5012335;28;20046;-74
2022/12/25 11:42:55;;;;;;;2.08;0.70;;;27.60;30.10;;;;;;5012167;28;20394;-74
2022/12/25 11:45:31;;;;;;;1.08;0.52;;;28.30;27.10;;;;;;5012325;28;20072;-73
2022/12/25 11:48:23;;;;;;;0.90;0.70;;;28.10;26.00;;;;;;5012251;28;20087;-73
2022/12/25 11:50:54;;;;;;;0.70;0.60;;;28.20;25.60;;;;;;5012058;28;20026;-74
2022/12/25 11:53:32;;;;;;;3.10;0.50;;;28.40;25.70;;;;;;5012106;28;20026;-74
2022/12/25 11:56:04;;;;;;;0.35;0.35;;;29.10;25.10;;;;;;5011743;28;20034;-74
2022/12/25 11:58:36;;;;;;;1.20;0.40;;;29.40;23.10;;;;;;5012159;28;20018;-74
2022/12/25 12:01:08;;;;;;;0.38;0.32;;;29.30;22.80;;;;;;5012270;28;20116;-74
2022/12/25 12:03:37;;;;;;;0.75;0.60;;;29.80;21.30;;;;;;5011590;28;20022;-74
2022/12/25 12:06:11;;;;;;;2.92;0.38;;;30.40;20.90;;;;;;5011964;28;20033;-74
2022/12/25 12:08:37;;;;;;;0.85;0.38;;;31.10;19.60;;;;;;4995623;28;20037;-74
2022/12/25 12:11:15;;;;;;;0.50;0.40;;;31.40;19.10;;;;;;5011685;28;20034;-74
2022/12/25 12:13:53;;;;;;;0.50;0.30;;;32.40;18.50;;;;;;5012029;28;20026;-74
2022/12/25 12:16:18;;;;;;;0.75;0.43;;;33.50;17.10;;;;;;5012051;28;20018;-82
2022/12/25 12:18:44;;;;;;;0.55;0.30;;;33.80;15.80;;;;;;4995537;28;20125;-82
2022/12/25 12:21:29;;;;;;;0.90;0.32;;;32.70;16.00;;;;;;5011904;28;20386;-74
2022/12/25 12:24:15;;;;;;;0.35;0.35;;;31.60;17.50;;;;;;5013451;28;20034;-74
2022/12/25 12:26:43;;;;;;;0.50;0.40;;;29.90;18.70;;;;;;5011513;28;20029;-74
2022/12/25 12:29:34;;;;;;;1.08;0.30;;;29.00;21.00;;;;;;5011849;28;20033;-74
2022/12/25 12:32:01;;;;;;;0.32;0.30;;;29.00;21.60;;;;;;5012088;28;20022;-74
2022/12/25 12:34:42;;;;;;;0.40;0.40;;;28.60;21.50;;;;;;5012275;28;20026;-75
2022/12/25 12:37:31;;;;;;;0.47;0.30;;;28.50;22.80;;;;;;5012105;28;20425;-74
2022/12/25 12:39:58;;;;;;;0.43;0.43;;;29.30;21.20;;;;;;5012239;28;20104;-90
2022/12/25 12:42:34;;;;;;;0.40;0.40;;;29.60;20.90;;;;;;5015365;28;20022;-74
2022/12/25 12:45:19;;;;;;;0.60;0.40;;;29.80;20.70;;;;;;5015198;28;20034;-74
2022/12/25 12:47:48;;;;;;;2.92;0.30;;;30.10;20.30;;;;;;5015032;28;20041;-75
2022/12/25 12:50:36;;;;;;;0.70;0.50;;;29.90;20.00;;;;;;5014897;28;20041;-75
2022/12/25 12:53:28;;;;;;;0.77;0.50;;;29.60;20.40;;;;;;5015147;28;20112;-74
2022/12/25 12:55:54;;;;;;;0.40;0.40;;;29.30;21.00;;;;;;5017214;28;20022;-75
2022/12/25 12:58:29;;;;;;;0.50;0.50;;;30.00;20.80;;;;;;5021568;28;20026;-75
2022/12/25 13:01:30;;;;;;;0.22;0.22;;;30.30;19.80;;;;;;5023305;28;20112;-74
2022/12/25 13:04:12;;;;;;;0.93;0.55;;;30.60;19.40;;;;;;5012882;28;20034;-74
2022/12/25 13:07:05;;;;;;;0.75;0.45;;;30.70;19.20;;;;;;5017808;28;20057;-73
2022/12/25 13:09:43;;;;;;;0.55;0.47;;;29.60;20.90;;;;;;5015062;28;20484;-74
2022/12/25 13:12:11;;;;;;;1.10;0.50;;;29.10;22.30;;;;;;5015142;28;20038;-74
2022/12/25 13:14:42;;;;;;;0.63;0.50;;;28.00;23.50;;;;;;5014731;28;20018;-74
2022/12/25 13:17:09;;;;;;;1.20;0.63;;;26.60;26.40;;;;;;5015971;28;20049;-74
2022/12/25 13:19:36;;;;;;;0.82;0.63;;;25.80;28.70;;;;;;5014676;28;20026;-74
2022/12/25 13:22:05;;;;;;;1.27;0.70;;;24.80;31.10;;;;;;5014546;28;20036;-74
2022/12/25 13:24:35;;;;;;;2.28;0.65;;;24.90;30.90;;;;;;5014504;28;20018;-73
2022/12/25 13:27:19;;;;;;;1.02;0.70;;;25.50;29.60;;;;;;5014364;28;20441;-73
2022/12/25 13:29:45;;;;;;;2.38;1.05;;;26.50;27.30;;;;;;5014378;28;20439;-74
2022/12/25 13:32:29;;;;;;;0.60;0.60;;;27.60;25.80;;;;;;5014675;28;20068;-74
2022/12/25 13:34:55;;;;;;;0.85;0.55;;;28.10;24.60;;;;;;4998910;28;20116;-77
2022/12/25 13:37:27;;;;;;;0.85;0.70;;;28.30;23.80;;;;;;5015690;28;20030;-74
2022/12/25 13:40:10;;;;;;;0.73;0.68;;;28.80;23.00;;;;;;5018078;28;20025;-73
2022/12/25 13:42:38;;;;;;;1.95;0.60;;;29.50;21.80;;;;;;5027523;28;20363;-73
2022/12/25 13:45:13;;;;;;;0.82;0.70;;;29.30;21.60;;;;;;5026928;28;20025;-72
2022/12/25 13:47:44;;;;;;;1.77;0.75;;;29.50;21.20;;;;;;5015219;28;20046;-72
2022/12/25 13:50:19;;;;;;;0.60;0.40;;;29.50;21.40;;;;;;4998990;28;20026;-73
2022/12/25 13:52:44;;;;;;;1.08;0.60;;;28.70;22.00;;;;;;5013213;28;20029;-74
2022/12/25 13:55:14;;;;;;;0.90;0.82;;;27.10;25.60;;;;;;5013918;28;20084;-73
2022/12/25 13:57:56;;;;;;;2.90;2.15;;;25.70;28.10;;;;;;5013629;28;20053;-75
2022/12/25 14:00:45;;;;;;;1.42;1.33;;;24.70;30.80;;;;;;5014003;28;20060;-74
2022/12/25 14:03:29;;;;;;;3.33;1.80;;;23.60;32.80;;;;;;5015060;28;20045;-74
2022/12/25 14:06:15;;;;;;;1.77;1.20;;;22.70;34.90;;;;;;5014297;28;20030;-74
2022/12/25 14:08:40;;;;;;;;;;;22.00;36.20;;;;;;5014236;28;20037;-74
2022/12/25 14:11:07;;;;;;;1.85;1.50;;;20.90;38.30;;;;;;5014562;28;19905;-74
2022/12/25 14:13:41;;;;;;;5.13;2.63;;;20.20;40.10;;;;;;5013991;28;20080;-74
2022/12/25 14:16:09;;;;;;;1.90;1.20;;;19.50;41.50;;;;;;5014044;28;20026;-74
2022/12/25 14:18:35;;;;;;;0.88;0.85;;;18.60;44.10;;;;;;5013391;28;20017;-74
2022/12/25 14:21:14;;;;;;;2.03;1.10;;;18.00;46.00;;;;;;5013487;28;20079;-74
2022/12/25 14:23:45;;;;;;;3.08;0.98;;;17.50;47.50;;;;;;5013934;28;20382;-74
2022/12/25 14:26:37;;;;;;;0.70;0.70;;;17.10;48.20;;;;;;5013646;28;20497;-75
2022/12/25 14:29:11;;;;;;;1.50;0.80;;;16.80;49.20;;;;;;5010442;28;20486;-74
2022/12/25 14:31:38;;;;;;;1.15;0.77;;;16.50;50.70;;;;;;5014242;28;20104;-74
2022/12/25 14:34:09;;;;;;;2.92;1.25;;;16.10;51.40;;;;;;5013262;28;20026;-74
2022/12/25 14:36:37;;;;;;;0.60;0.50;;;15.90;52.40;;;;;;5013332;28;20443;-73
2022/12/25 14:39:05;;;;;;;1.33;0.80;;;15.70;53.20;;;;;;5013101;28;20036;-73
2022/12/25 14:41:37;;;;;;;0.88;0.80;;;15.40;54.50;;;;;;5014419;28;20050;-75
2022/12/25 14:44:24;;;;;;;0.88;0.65;;;15.10;55.80;;;;;;5014338;28;20557;-73
2022/12/25 14:46:50;;;;;;;1.95;0.90;;;14.80;56.50;;;;;;5014195;28;20065;-73
2022/12/25 14:49:24;;;;;;;2.38;1.10;;;14.60;58.00;;;;;;5014166;28;20467;-73
2022/12/25 14:51:50;;;;;;;2.60;1.00;;;14.40;58.30;;;;;;5014018;28;20033;-73